Search for airport 
image banner adimage banner adimage banner ad
image banner ad

CA32 - San Joaquin

Located in San Joaquin, United States

ICAO - CA32, IATA -

Data provided by Airmate  

General information

Coordinates: N36°34'60" W120°15'4"
Elevation is 165 feet MSL.
Magnetic variation is 15° East
View others Airports in California

Operational data

Special qualification required
Current time UTC:
Current local time:
Weather at : KNLC - Lemoore Nas (Reeves Fld) ( 39 km )
METAR: KNLC 211356Z AUTO 30009KT 10SM CLR 20/09 A2986 RMK AO2 SLP110 T02000094
TAF: TAF KNLC 2107/2207 31009KT 9999 SKC QNH2977INS FM212300 24012KT 9999 SKC QNH2978INS AUTOMATED SENSOR METWATCH 2007 TIL 2014 T19/2112Z T39/2122Z FS30178
View NOTAMs / SUP AIP / TFR affecting this airport [VIEW]
Communications frequencies: [VIEW]

Runways:

RWY identifierQFULength (ft)Width (ft)SurfaceLDA (ft)
15250030OTHER
33250030OTHER

Airport contact information

Address: San Joaquin United States

Satellite view of CA32